createdAt,value
2017-02-13T00:00:31.872Z,0
2017-02-13T00:01:42.670Z,0
2017-02-13T00:02:53.036Z,0
2017-02-13T00:04:02.553Z,0
2017-02-13T00:05:12.487Z,0
2017-02-13T00:06:22.863Z,0
2017-02-13T00:07:32.747Z,0
2017-02-13T00:08:43.093Z,0
2017-02-13T00:09:53.443Z,0
2017-02-13T00:11:03.411Z,0
2017-02-13T00:12:12.935Z,0
2017-02-13T00:13:22.815Z,0
2017-02-13T00:14:32.766Z,0
2017-02-13T00:15:42.694Z,0
2017-02-13T00:16:53.057Z,0
2017-02-13T00:18:03.406Z,0
2017-02-13T00:19:13.242Z,0
2017-02-13T00:20:23.621Z,0
2017-02-13T00:21:33.569Z,0
2017-02-13T00:22:43.500Z,0
2017-02-13T00:23:53.437Z,0
2017-02-13T00:25:04.134Z,0
2017-02-13T00:26:14.499Z,0
2017-02-13T00:27:24.863Z,0
2017-02-13T00:28:35.227Z,0
2017-02-13T00:29:45.574Z,0
2017-02-13T00:30:55.849Z,0
2017-02-13T00:32:05.375Z,0
2017-02-13T00:33:14.915Z,0
2017-02-13T00:34:24.879Z,0
2017-02-13T00:35:35.229Z,0
2017-02-13T00:36:45.931Z,0
2017-02-13T00:37:56.281Z,0
2017-02-13T00:39:06.655Z,0
2017-02-13T00:40:16.582Z,0
2017-02-13T00:41:26.946Z,0
2017-02-13T00:42:37.703Z,0
2017-02-13T00:43:47.649Z,0
2017-02-13T00:44:57.585Z,0
2017-02-13T00:46:07.530Z,0
2017-02-13T00:47:17.464Z,0
2017-02-13T00:48:27.735Z,0
2017-02-13T00:49:38.100Z,0
2017-02-13T00:50:48.461Z,0
2017-02-13T00:51:58.410Z,0
2017-02-13T00:53:08.344Z,0
2017-02-13T00:54:18.991Z,0
2017-02-13T00:55:29.372Z,0
2017-02-13T00:56:39.737Z,0
2017-02-13T00:57:49.694Z,0
2017-02-13T00:58:59.625Z,0
2017-02-13T01:00:10.325Z,0
2017-02-13T01:01:20.679Z,0
2017-02-13T01:02:31.053Z,0
2017-02-13T01:03:41.424Z,0
2017-02-13T01:04:51.371Z,0
2017-02-13T01:06:02.089Z,0
2017-02-13T01:07:12.451Z,0
2017-02-13T01:08:22.814Z,0
2017-02-13T01:09:32.752Z,0
2017-02-13T01:10:42.697Z,0
2017-02-13T01:11:52.994Z,0
2017-02-13T01:13:03.357Z,0
2017-02-13T01:14:13.730Z,0
2017-02-13T01:15:24.078Z,0
2017-02-13T01:16:33.603Z,0
2017-02-13T01:17:44.256Z,0
2017-02-13T01:18:54.206Z,0
2017-02-13T01:20:04.141Z,0
2017-02-13T01:21:14.123Z,0
2017-02-13T01:22:24.070Z,0
2017-02-13T01:23:33.940Z,0
2017-02-13T01:24:43.900Z,0
2017-02-13T01:25:54.257Z,0
2017-02-13T01:27:04.598Z,0
2017-02-13T01:28:14.129Z,0
2017-02-13T01:29:24.850Z,0
2017-02-13T01:30:34.811Z,0
2017-02-13T01:31:44.758Z,0
2017-02-13T01:32:54.691Z,0
2017-02-13T01:34:05.044Z,0
2017-02-13T01:35:15.328Z,0
2017-02-13T01:36:25.694Z,0
2017-02-13T01:37:36.051Z,0
2017-02-13T01:38:45.990Z,0
2017-02-13T01:39:55.964Z,0
2017-02-13T01:41:06.729Z,0
2017-02-13T01:42:16.669Z,0
2017-02-13T01:43:26.613Z,0
2017-02-13T01:44:36.977Z,0
2017-02-13T01:45:46.943Z,0
2017-02-13T01:46:57.622Z,0
2017-02-13T01:48:07.583Z,0
2017-02-13T01:49:17.118Z,0
2017-02-13T01:50:27.069Z,0
2017-02-13T01:51:37.001Z,0
2017-02-13T01:52:47.301Z,0
2017-02-13T01:53:57.687Z,0
2017-02-13T01:55:07.215Z,0
2017-02-13T01:56:17.139Z,0
2017-02-13T01:57:27.504Z,0
2017-02-13T01:58:37.793Z,0
2017-02-13T01:59:47.741Z,0
2017-02-13T02:00:57.271Z,0
2017-02-13T02:02:07.630Z,0
2017-02-13T02:03:17.166Z,0
2017-02-13T02:04:27.462Z,0
2017-02-13T02:05:37.827Z,0
2017-02-13T02:06:48.201Z,0
2017-02-13T02:07:58.566Z,0
2017-02-13T02:09:08.909Z,0
2017-02-13T02:10:19.552Z,0
2017-02-13T02:11:29.509Z,0
2017-02-13T02:12:39.877Z,0
2017-02-13T02:13:50.238Z,0
2017-02-13T02:15:00.616Z,0
2017-02-13T02:16:10.960Z,0
2017-02-13T02:17:21.316Z,0
2017-02-13T02:18:37.949Z,0
2017-02-13T02:19:47.877Z,0
2017-02-13T02:20:57.817Z,0
2017-02-13T02:22:08.156Z,0
2017-02-13T02:23:18.512Z,0
2017-02-13T02:24:28.869Z,0
2017-02-13T02:25:38.801Z,0
2017-02-13T02:26:49.146Z,0
2017-02-13T02:27:59.373Z,0
2017-02-13T02:29:09.728Z,0
2017-02-13T02:30:19.669Z,0
2017-02-13T02:31:30.004Z,0
2017-02-13T02:32:39.975Z,0
2017-02-13T02:33:50.299Z,0
2017-02-13T02:35:00.648Z,0
2017-02-13T02:36:10.148Z,0
2017-02-13T02:37:20.083Z,0
2017-02-13T02:38:30.021Z,0
2017-02-13T02:39:40.712Z,0
2017-02-13T02:40:50.636Z,0
2017-02-13T02:42:00.573Z,0
2017-02-13T02:43:10.504Z,0
2017-02-13T02:44:20.449Z,0
2017-02-13T02:45:30.791Z,0
2017-02-13T02:46:41.136Z,0
2017-02-13T02:47:50.651Z,0
2017-02-13T02:49:01.001Z,0
2017-02-13T02:50:10.927Z,0
2017-02-13T02:51:21.212Z,0
2017-02-13T02:52:31.559Z,0
2017-02-13T02:53:41.922Z,0
2017-02-13T02:54:52.274Z,0
2017-02-13T02:56:02.617Z,0
2017-02-13T02:57:12.155Z,0
2017-02-13T02:58:22.079Z,0
2017-02-13T02:59:32.415Z,0
2017-02-13T03:00:42.345Z,0
2017-02-13T03:01:52.279Z,0
2017-02-13T03:03:02.938Z,0
2017-02-13T03:04:12.443Z,0
2017-02-13T03:05:22.379Z,0
2017-02-13T03:06:32.755Z,0
2017-02-13T03:07:43.088Z,0
2017-02-13T03:08:53.001Z,0
2017-02-13T03:10:03.346Z,0
2017-02-13T03:11:13.691Z,0
2017-02-13T03:12:24.023Z,0
2017-02-13T03:13:34.366Z,0
2017-02-13T03:14:44.239Z,0
2017-02-13T03:15:54.200Z,0
2017-02-13T03:17:04.539Z,0
2017-02-13T03:18:14.471Z,0
2017-02-13T03:19:24.422Z,0
2017-02-13T03:20:34.695Z,0
2017-02-13T03:21:45.029Z,0
2017-02-13T03:22:54.951Z,0
2017-02-13T03:24:05.302Z,0
2017-02-13T03:25:15.688Z,0
2017-02-13T03:26:25.499Z,0
2017-02-13T03:27:35.426Z,0
2017-02-13T03:28:45.786Z,0
2017-02-13T03:29:56.137Z,0
2017-02-13T03:31:05.640Z,0
2017-02-13T03:32:16.348Z,0
2017-02-13T03:33:26.711Z,0
2017-02-13T03:34:37.058Z,0
2017-02-13T03:35:47.393Z,0
2017-02-13T03:36:57.751Z,0
2017-02-13T03:38:08.438Z,0
2017-02-13T03:39:18.772Z,0
2017-02-13T03:40:29.117Z,0
2017-02-13T03:41:39.043Z,0
2017-02-13T03:42:49.414Z,0
2017-02-13T03:44:00.111Z,0
2017-02-13T03:45:10.484Z,0
2017-02-13T03:46:20.410Z,0
2017-02-13T03:47:30.747Z,0
2017-02-13T03:48:40.712Z,0
2017-02-13T03:49:50.935Z,0
2017-02-13T03:51:00.861Z,0
2017-02-13T03:52:10.406Z,0
2017-02-13T03:53:20.343Z,0
2017-02-13T03:54:30.684Z,0
2017-02-13T03:55:41.379Z,0
2017-02-13T03:56:50.883Z,0
2017-02-13T03:58:01.225Z,0
2017-02-13T03:59:11.184Z,0
2017-02-13T04:00:21.520Z,0
2017-02-13T04:01:32.247Z,0
2017-02-13T04:02:41.765Z,0
2017-02-13T04:03:51.284Z,0
2017-02-13T04:05:01.653Z,0
2017-02-13T04:06:12.019Z,0
2017-02-13T04:07:22.300Z,0
2017-02-13T04:08:31.823Z,0
2017-02-13T04:09:42.166Z,0
2017-02-13T04:10:52.521Z,0
2017-02-13T04:12:02.449Z,0
2017-02-13T04:13:12.340Z,0
2017-02-13T04:14:22.282Z,0
2017-02-13T04:15:32.632Z,0
2017-02-13T04:16:42.168Z,0
2017-02-13T04:17:52.511Z,0
2017-02-13T04:19:02.784Z,0
2017-02-13T04:20:13.148Z,0
2017-02-13T04:21:23.511Z,0
2017-02-13T04:22:33.474Z,0
2017-02-13T04:23:43.823Z,0
2017-02-13T04:24:54.075Z,0
2017-02-13T04:26:03.997Z,0
2017-02-13T04:27:13.507Z,0
2017-02-13T04:28:23.843Z,0
2017-02-13T04:29:33.373Z,0
2017-02-13T04:30:44.062Z,0
2017-02-13T04:31:54.413Z,0
2017-02-13T04:33:04.765Z,0
2017-02-13T04:34:14.708Z,0
2017-02-13T04:35:24.667Z,0
2017-02-13T04:36:35.370Z,0
2017-02-13T04:37:45.306Z,0
2017-02-13T04:38:55.233Z,0
2017-02-13T04:40:05.187Z,0
2017-02-13T04:41:15.111Z,0
2017-02-13T04:42:25.801Z,0
2017-02-13T04:43:35.755Z,0
2017-02-13T04:44:45.683Z,0
2017-02-13T04:45:55.605Z,0
2017-02-13T04:47:05.531Z,0
2017-02-13T04:48:16.235Z,0
2017-02-13T04:49:26.597Z,0
2017-02-13T04:50:36.944Z,0
2017-02-13T04:51:46.869Z,0
2017-02-13T04:52:57.218Z,0
2017-02-13T04:54:07.969Z,0
2017-02-13T04:55:17.904Z,0
2017-02-13T04:56:28.259Z,0
2017-02-13T04:57:38.192Z,0
2017-02-13T04:58:48.551Z,0
2017-02-13T04:59:58.419Z,0
2017-02-13T05:01:08.765Z,0
2017-02-13T05:02:18.704Z,0
2017-02-13T05:03:28.630Z,0
2017-02-13T05:04:39.000Z,0
2017-02-13T05:05:49.681Z,0
2017-02-13T05:06:59.630Z,0
2017-02-13T05:08:09.996Z,0
2017-02-13T05:09:20.341Z,0
2017-02-13T05:10:30.265Z,0
2017-02-13T05:11:40.536Z,0
2017-02-13T05:12:50.882Z,0
2017-02-13T05:14:01.238Z,0
2017-02-13T05:15:11.597Z,0
2017-02-13T05:16:21.938Z,0
2017-02-13T05:17:32.298Z,0
2017-02-13T05:18:42.643Z,0
2017-02-13T05:19:52.572Z,0
2017-02-13T05:21:02.930Z,0
2017-02-13T05:22:12.845Z,0
2017-02-13T05:23:22.668Z,0
2017-02-13T05:24:33.007Z,0
2017-02-13T05:25:43.364Z,0
2017-02-13T05:26:53.292Z,0
2017-02-13T05:28:02.818Z,0
2017-02-13T05:29:12.388Z,0
2017-02-13T05:30:21.892Z,0
2017-02-13T05:31:32.236Z,0
2017-02-13T05:32:42.574Z,0
2017-02-13T05:33:52.502Z,0
2017-02-13T05:35:03.144Z,0
2017-02-13T05:36:13.497Z,0
2017-02-13T05:37:23.451Z,0
2017-02-13T05:38:33.793Z,0
2017-02-13T05:39:43.746Z,0
2017-02-13T05:40:54.066Z,0
2017-02-13T05:42:04.025Z,0
2017-02-13T05:43:14.375Z,0
2017-02-13T05:44:24.307Z,0
2017-02-13T05:45:34.254Z,0
2017-02-13T05:46:43.808Z,0
2017-02-13T05:47:53.319Z,0
2017-02-13T05:49:03.258Z,0
2017-02-13T05:50:13.603Z,0
2017-02-13T05:51:23.118Z,0
2017-02-13T05:52:33.763Z,0
2017-02-13T05:53:43.701Z,0
2017-02-13T05:54:54.040Z,0
2017-02-13T05:56:04.403Z,0
2017-02-13T05:57:14.331Z,0
2017-02-13T05:58:24.660Z,0
2017-02-13T05:59:35.021Z,0
2017-02-13T06:00:45.361Z,0
2017-02-13T06:01:55.709Z,0
2017-02-13T06:03:05.239Z,0
2017-02-13T06:04:15.522Z,0
2017-02-13T06:05:25.872Z,0
2017-02-13T06:06:36.214Z,0
2017-02-13T06:07:46.157Z,0
2017-02-13T06:08:56.519Z,0
2017-02-13T06:10:06.804Z,0
2017-02-13T06:11:16.730Z,0
2017-02-13T06:12:26.249Z,4
2017-02-13T06:13:36.598Z,4
2017-02-13T06:14:46.951Z,0
2017-02-13T06:15:57.128Z,4
2017-02-13T06:17:07.489Z,0
2017-02-13T06:18:17.412Z,4
2017-02-13T06:19:27.339Z,4
2017-02-13T06:20:37.684Z,4
2017-02-13T06:21:47.986Z,8
2017-02-13T06:22:57.907Z,8
2017-02-13T06:24:07.839Z,8
2017-02-13T06:25:17.774Z,12
2017-02-13T06:26:28.127Z,12
2017-02-13T06:27:38.873Z,20
2017-02-13T06:28:48.823Z,20
2017-02-13T06:29:58.749Z,28
2017-02-13T06:31:09.093Z,28
2017-02-13T06:32:19.454Z,36
2017-02-13T06:33:29.282Z,44
2017-02-13T06:34:39.627Z,48
2017-02-13T06:35:49.139Z,60
2017-02-13T06:36:59.073Z,72
2017-02-13T06:38:09.010Z,80
2017-02-13T06:39:19.363Z,92
2017-02-13T06:40:29.327Z,108
2017-02-13T06:41:39.267Z,124
2017-02-13T06:42:49.611Z,140
2017-02-13T06:43:59.552Z,160
2017-02-13T06:45:10.249Z,184
2017-02-13T06:46:20.181Z,200
2017-02-13T06:47:30.527Z,228
2017-02-13T06:48:40.477Z,248
2017-02-13T06:49:50.821Z,280
2017-02-13T06:51:01.020Z,308
2017-02-13T06:52:10.947Z,336
2017-02-13T06:53:20.896Z,368
2017-02-13T06:54:30.829Z,404
2017-02-13T06:55:41.201Z,436
2017-02-13T06:56:51.954Z,476
2017-02-13T06:58:02.300Z,512
2017-02-13T06:59:12.639Z,552
2017-02-13T07:00:22.995Z,596
2017-02-13T07:01:32.969Z,636
2017-02-13T07:02:43.585Z,680
2017-02-13T07:03:53.525Z,728
2017-02-13T07:05:03.473Z,772
2017-02-13T07:06:13.418Z,816
2017-02-13T07:07:22.970Z,868
2017-02-13T07:08:33.261Z,916
2017-02-13T07:09:43.184Z,968
2017-02-13T07:10:53.109Z,1016
2017-02-13T07:12:03.052Z,1068
2017-02-13T07:13:12.974Z,1116
2017-02-13T07:14:23.259Z,1172
2017-02-13T07:15:33.183Z,1224
2017-02-13T07:16:43.122Z,1272
2017-02-13T07:17:53.471Z,1328
2017-02-13T07:19:03.808Z,1380
2017-02-13T07:20:14.039Z,1436
2017-02-13T07:21:23.975Z,1488
2017-02-13T07:22:33.920Z,1544
2017-02-13T07:23:43.845Z,1600
2017-02-13T07:24:54.195Z,1656
2017-02-13T07:26:04.522Z,1704
2017-02-13T07:27:14.450Z,1756
2017-02-13T07:28:24.798Z,1812
2017-02-13T07:29:34.730Z,1864
2017-02-13T07:30:45.069Z,1924
2017-02-13T07:31:55.831Z,1960
2017-02-13T07:33:06.177Z,2016
2017-02-13T07:34:16.541Z,2064
2017-02-13T07:35:26.876Z,2148
2017-02-13T07:36:36.797Z,2212
2017-02-13T07:37:46.702Z,2268
2017-02-13T07:38:57.068Z,2316
2017-02-13T07:40:07.404Z,2368
2017-02-13T07:41:16.912Z,2412
2017-02-13T07:42:27.270Z,2456
2017-02-13T07:43:37.907Z,2500
2017-02-13T07:44:48.264Z,2552
2017-02-13T07:45:58.619Z,2592
2017-02-13T07:47:08.977Z,2636
2017-02-13T07:48:18.530Z,2684
2017-02-13T07:49:29.121Z,2736
2017-02-13T07:50:39.492Z,2764
2017-02-13T07:51:48.603Z,2796
2017-02-13T07:52:58.547Z,2848
2017-02-13T07:54:08.078Z,2884
2017-02-13T07:55:18.300Z,2920
2017-02-13T07:56:28.239Z,2960
2017-02-13T07:57:38.181Z,2988
2017-02-13T07:58:47.716Z,3032
2017-02-13T07:59:57.716Z,3068
2017-02-13T08:01:08.385Z,3100
2017-02-13T08:02:18.320Z,3128
2017-02-13T08:03:28.249Z,3176
2017-02-13T08:04:38.194Z,3216
2017-02-13T08:05:47.708Z,3268
2017-02-13T08:06:58.006Z,3308
2017-02-13T08:08:08.356Z,3352
2017-02-13T08:09:18.285Z,3528
2017-02-13T08:10:28.256Z,3628
2017-02-13T08:11:38.485Z,3512
2017-02-13T08:12:48.807Z,3540
2017-02-13T08:13:59.151Z,3444
2017-02-13T08:15:09.093Z,3468
2017-02-13T08:16:19.445Z,3500
2017-02-13T08:17:29.824Z,3528
2017-02-13T08:18:40.527Z,3560
2017-02-13T08:19:50.049Z,3584
2017-02-13T08:20:59.988Z,3604
2017-02-13T08:22:09.918Z,3648
2017-02-13T08:23:19.429Z,3676
2017-02-13T08:24:29.796Z,3692
2017-02-13T08:25:39.743Z,3708
2017-02-13T08:26:49.659Z,3732
2017-02-13T08:28:00.033Z,3760
2017-02-13T08:29:10.398Z,3788
2017-02-13T08:30:20.679Z,3788
2017-02-13T08:31:31.038Z,3796
2017-02-13T08:32:41.407Z,3816
2017-02-13T08:33:51.329Z,3812
2017-02-13T08:35:01.250Z,3844
2017-02-13T08:36:11.530Z,3860
2017-02-13T08:37:21.879Z,3864
2017-02-13T08:38:32.227Z,3876
2017-02-13T08:39:41.750Z,3932
2017-02-13T08:40:52.108Z,3924
2017-02-13T08:42:02.387Z,3944
2017-02-13T08:43:12.320Z,3940
2017-02-13T08:44:22.692Z,3960
2017-02-13T08:45:33.025Z,4000
2017-02-13T08:46:42.978Z,4004
2017-02-13T08:47:52.959Z,4004
2017-02-13T08:49:03.307Z,4004
2017-02-13T08:50:12.833Z,4064
2017-02-13T08:51:23.179Z,4072
2017-02-13T08:52:33.518Z,4080
2017-02-13T08:53:43.772Z,4100
2017-02-13T08:54:53.701Z,4124
2017-02-13T08:56:03.637Z,4128
2017-02-13T08:57:13.974Z,4132
2017-02-13T08:58:23.918Z,4160
2017-02-13T08:59:34.609Z,4168
2017-02-13T09:00:44.965Z,4196
2017-02-13T09:01:55.307Z,4240
2017-02-13T09:03:05.661Z,4224
2017-02-13T09:04:15.590Z,4240
2017-02-13T09:05:26.396Z,4260
2017-02-13T09:06:36.328Z,4264
2017-02-13T09:07:46.675Z,4260
2017-02-13T09:08:56.627Z,4288
2017-02-13T09:10:06.965Z,4300
2017-02-13T09:11:17.237Z,4320
2017-02-13T09:12:27.575Z,4336
2017-02-13T09:13:37.935Z,4316
2017-02-13T09:14:48.303Z,4352
2017-02-13T09:15:58.678Z,4384
2017-02-13T09:17:09.371Z,4412
2017-02-13T09:18:19.723Z,4400
2017-02-13T09:19:30.071Z,4440
2017-02-13T09:20:40.422Z,4472
2017-02-13T09:21:50.382Z,4472
2017-02-13T09:23:01.187Z,4512
2017-02-13T09:24:11.545Z,4504
2017-02-13T09:25:21.928Z,4508
2017-02-13T09:26:31.857Z,4528
2017-02-13T09:27:42.213Z,4520
2017-02-13T09:28:52.947Z,4544
2017-02-13T09:30:02.507Z,4544
2017-02-13T09:31:12.869Z,4536
2017-02-13T09:32:23.233Z,4524
2017-02-13T09:33:33.600Z,4568
2017-02-13T09:34:44.293Z,4572
2017-02-13T09:35:54.227Z,4552
2017-02-13T09:37:04.571Z,4588
2017-02-13T09:38:14.532Z,4616
2017-02-13T09:39:24.879Z,4652
2017-02-13T09:40:35.262Z,4644
2017-02-13T09:41:44.791Z,4656
2017-02-13T09:42:54.718Z,4640
2017-02-13T09:44:04.667Z,4644
2017-02-13T09:45:15.014Z,4632
2017-02-13T09:46:24.794Z,4620
2017-02-13T09:47:35.147Z,4612
2017-02-13T09:48:45.491Z,4620
2017-02-13T09:49:55.854Z,4624
2017-02-13T09:51:05.785Z,4616
2017-02-13T09:52:16.015Z,4648
2017-02-13T09:53:25.939Z,4640
2017-02-13T09:54:36.315Z,4636
2017-02-13T09:55:45.840Z,4632
2017-02-13T09:56:56.207Z,4652
2017-02-13T09:58:06.799Z,4640
2017-02-13T09:59:16.322Z,4636
2017-02-13T10:00:25.852Z,4672
2017-02-13T10:01:36.203Z,4668
2017-02-13T10:02:45.716Z,4684
2017-02-13T10:03:55.593Z,4700
2017-02-13T10:05:05.121Z,4688
2017-02-13T10:06:15.062Z,4688
2017-02-13T10:07:25.437Z,4668
2017-02-13T10:08:35.797Z,4672
2017-02-13T10:09:46.483Z,4656
2017-02-13T10:10:56.839Z,4656
2017-02-13T10:12:07.181Z,4660
2017-02-13T10:13:17.543Z,4660
2017-02-13T10:14:27.511Z,4680
2017-02-13T10:15:37.833Z,4664
2017-02-13T10:16:48.198Z,4668
2017-02-13T10:17:58.548Z,4652
2017-02-13T10:19:08.909Z,4664
2017-02-13T10:20:19.273Z,4664
2017-02-13T10:21:30.002Z,4656
2017-02-13T10:22:39.929Z,4672
2017-02-13T10:23:49.912Z,4656
2017-02-13T10:24:59.886Z,4684
2017-02-13T10:26:09.822Z,4676
2017-02-13T10:27:20.045Z,4668
2017-02-13T10:28:30.403Z,4676
2017-02-13T10:29:39.935Z,4704
2017-02-13T10:30:49.892Z,4672
2017-02-13T10:31:59.435Z,4668
2017-02-13T10:33:09.725Z,4700
2017-02-13T10:34:20.141Z,4676
2017-02-13T10:35:30.510Z,4684
2017-02-13T10:36:40.905Z,4672
2017-02-13T10:37:51.253Z,4652
2017-02-13T10:39:01.167Z,4680
2017-02-13T10:40:11.101Z,4704
2017-02-13T10:41:21.077Z,4704
2017-02-13T10:42:31.018Z,4720
2017-02-13T10:43:41.389Z,4720
2017-02-13T10:44:51.633Z,4708
2017-02-13T10:46:02.010Z,4716
2017-02-13T10:47:11.946Z,4712
2017-02-13T10:48:21.889Z,4696
2017-02-13T10:49:32.230Z,4688
2017-02-13T10:50:42.506Z,4676
2017-02-13T10:51:52.852Z,4688
2017-02-13T10:53:03.223Z,4704
2017-02-13T10:54:13.577Z,4704
2017-02-13T10:55:23.943Z,4684
2017-02-13T10:56:34.663Z,4696
2017-02-13T10:57:45.031Z,4692
2017-02-13T10:58:54.131Z,4724
2017-02-13T11:00:04.509Z,4724
2017-02-13T11:01:14.452Z,4716
2017-02-13T11:02:24.737Z,4708
2017-02-13T11:03:35.089Z,4692
2017-02-13T11:04:45.014Z,4668
2017-02-13T11:05:55.355Z,4660
2017-02-13T11:07:05.717Z,4612
2017-02-13T11:08:15.584Z,4604
2017-02-13T11:09:25.545Z,4604
2017-02-13T11:10:35.073Z,4604
2017-02-13T11:11:45.421Z,4636
2017-02-13T11:12:54.947Z,4636
2017-02-13T11:14:05.247Z,4636
2017-02-13T11:15:14.776Z,4632
2017-02-13T11:16:24.315Z,4592
2017-02-13T11:17:33.837Z,4600
2017-02-13T11:18:43.802Z,4592
2017-02-13T11:19:54.112Z,4564
2017-02-13T11:21:04.470Z,4568
2017-02-13T11:22:14.411Z,4564
2017-02-13T11:23:24.387Z,4564
2017-02-13T11:24:33.929Z,4556
2017-02-13T11:25:44.224Z,4580
2017-02-13T11:26:53.736Z,4544
2017-02-13T11:28:03.694Z,4516
2017-02-13T11:29:13.639Z,4524
2017-02-13T11:30:23.165Z,4516
2017-02-13T11:31:33.836Z,4496
2017-02-13T11:32:44.188Z,4480
2017-02-13T11:33:54.138Z,4492
2017-02-13T11:35:04.066Z,4488
2017-02-13T11:36:14.442Z,4496
2017-02-13T11:37:24.768Z,4472
2017-02-13T11:38:34.279Z,4480
2017-02-13T11:39:44.639Z,4484
2017-02-13T11:40:55.012Z,4460
2017-02-13T11:42:05.365Z,4476
2017-02-13T11:43:15.330Z,4480
2017-02-13T11:44:25.293Z,4472
2017-02-13T11:45:35.642Z,4476
2017-02-13T11:46:46.012Z,4476
2017-02-13T11:47:55.960Z,4460
2017-02-13T11:49:06.659Z,4444
2017-02-13T11:50:17.013Z,4440
2017-02-13T11:51:26.953Z,4444
2017-02-13T11:52:37.317Z,4440
2017-02-13T11:53:46.833Z,4480
2017-02-13T11:54:57.183Z,4504
2017-02-13T11:56:06.701Z,4504
2017-02-13T11:57:17.066Z,4508
2017-02-13T11:58:27.409Z,4508
2017-02-13T11:59:37.369Z,4508
2017-02-13T12:00:47.611Z,4508
2017-02-13T12:01:57.967Z,4508
2017-02-13T12:03:07.905Z,4528
2017-02-13T12:04:18.243Z,4540
2017-02-13T12:05:28.200Z,4520
2017-02-13T12:06:38.444Z,4512
2017-02-13T12:07:48.823Z,4508
2017-02-13T12:08:59.164Z,4496
2017-02-13T12:10:09.531Z,4524
2017-02-13T12:11:19.901Z,4516
2017-02-13T12:12:30.585Z,4512
2017-02-13T12:13:40.933Z,4520
2017-02-13T12:14:51.277Z,4528
2017-02-13T12:16:01.632Z,4528
2017-02-13T12:17:11.586Z,4532
2017-02-13T12:18:21.899Z,4540
2017-02-13T12:19:31.433Z,4524
2017-02-13T12:20:41.798Z,4488
2017-02-13T12:21:52.153Z,4480
2017-02-13T12:23:02.545Z,4476
2017-02-13T12:24:13.281Z,4472
2017-02-13T12:25:23.659Z,4484
2017-02-13T12:26:33.608Z,4476
2017-02-13T12:27:43.989Z,4468
2017-02-13T12:28:54.358Z,4464
2017-02-13T12:30:04.739Z,4492
2017-02-13T12:31:14.673Z,4488
2017-02-13T12:32:25.025Z,4476
2017-02-13T12:33:34.974Z,4472
2017-02-13T12:34:44.521Z,4488
2017-02-13T12:35:55.231Z,4496
2017-02-13T12:37:05.168Z,4500
2017-02-13T12:38:15.558Z,4508
2017-02-13T12:39:25.929Z,4536
2017-02-13T12:40:36.306Z,4540
2017-02-13T12:41:47.045Z,4548
2017-02-13T12:42:56.974Z,4560
2017-02-13T12:45:36.550Z,4564
2017-02-13T12:46:46.334Z,4560
2017-02-13T12:47:56.260Z,4548
2017-02-13T12:49:06.628Z,4552
2017-02-13T12:50:16.577Z,4556
2017-02-13T12:51:26.502Z,4552
2017-02-13T12:52:37.222Z,4564
2017-02-13T12:53:47.575Z,4576
2017-02-13T12:54:57.940Z,4576
2017-02-13T12:56:07.869Z,4564
2017-02-13T12:57:18.209Z,4572
2017-02-13T12:58:28.491Z,4580
2017-02-13T12:59:38.446Z,4576
2017-02-13T13:00:48.025Z,4584
2017-02-13T13:01:58.420Z,4600
2017-02-13T13:03:08.377Z,4608
2017-02-13T13:04:18.660Z,4628
2017-02-13T13:05:28.595Z,4644
2017-02-13T13:06:38.546Z,4644
2017-02-13T13:07:48.510Z,4668
2017-02-13T13:08:58.908Z,4672
2017-02-13T13:10:09.709Z,4680
2017-02-13T13:11:19.263Z,4696
2017-02-13T13:12:29.618Z,4708
2017-02-13T13:13:39.218Z,4700
2017-02-13T13:14:49.177Z,4708
2017-02-13T13:16:00.031Z,4720
2017-02-13T13:17:09.568Z,4748
2017-02-13T13:18:19.953Z,4768
2017-02-13T13:19:30.304Z,4776
2017-02-13T13:20:40.663Z,4796
2017-02-13T13:21:50.998Z,4816
2017-02-13T13:23:00.997Z,4828
2017-02-13T13:24:10.587Z,4840
2017-02-13T13:25:20.533Z,4848
2017-02-13T13:26:33.962Z,4848
2017-02-13T13:27:44.745Z,4848
2017-02-13T13:28:55.120Z,4872
2017-02-13T13:30:05.499Z,4872
2017-02-13T13:31:15.524Z,4876
2017-02-13T13:32:25.889Z,4848
2017-02-13T13:33:36.204Z,4824
2017-02-13T13:34:46.590Z,4816
2017-02-13T13:35:56.962Z,4768
2017-02-13T13:37:07.331Z,4772
2017-02-13T13:38:17.312Z,4792
2017-02-13T13:39:28.058Z,4788
2017-02-13T13:40:38.506Z,4764
2017-02-13T13:41:48.968Z,4720
2017-02-13T13:42:59.414Z,4696
2017-02-13T13:44:08.933Z,4660
2017-02-13T13:45:19.256Z,4628
2017-02-13T13:46:29.635Z,4584
2017-02-13T13:47:39.611Z,4544
2017-02-13T13:48:49.568Z,4500
2017-02-13T13:49:59.930Z,4456
2017-02-13T13:51:10.210Z,4404
2017-02-13T13:52:20.570Z,4356
2017-02-13T13:53:30.903Z,4460
2017-02-13T13:54:41.258Z,4428
2017-02-13T13:55:51.201Z,4428
2017-02-13T13:57:01.911Z,4428
2017-02-13T13:58:12.281Z,4404
2017-02-13T13:59:22.625Z,4380
2017-02-13T14:00:32.574Z,4364
2017-02-13T14:01:42.536Z,4344
2017-02-13T14:02:53.240Z,4324
2017-02-13T14:04:03.630Z,4300
2017-02-13T14:05:13.150Z,4276
2017-02-13T14:06:23.528Z,4272
2017-02-13T14:07:33.925Z,4264
2017-02-13T14:08:44.150Z,4248
2017-02-13T14:09:54.103Z,4236
2017-02-13T14:11:04.036Z,4224
2017-02-13T14:12:14.404Z,4228
2017-02-13T14:13:24.340Z,4212
2017-02-13T14:14:35.068Z,4196
2017-02-13T14:15:45.029Z,4192
2017-02-13T14:16:55.366Z,4168
2017-02-13T14:18:05.704Z,4152
2017-02-13T14:19:15.663Z,4124
2017-02-13T14:20:26.363Z,4116
2017-02-13T14:21:36.733Z,4096
2017-02-13T14:22:46.688Z,4072
2017-02-13T14:23:57.084Z,4060
2017-02-13T14:25:07.028Z,4040
2017-02-13T14:26:17.270Z,4020
2017-02-13T14:27:27.612Z,4000
2017-02-13T14:28:37.566Z,3984
2017-02-13T14:29:47.495Z,3968
2017-02-13T14:30:57.863Z,3956
2017-02-13T14:32:08.671Z,3944
2017-02-13T14:33:19.035Z,3932
2017-02-13T14:34:29.413Z,3904
